Bordertown, Nevada
Current Conditions -  °F | °C
As of 6:15 AM on Saturday 25 Oct 2014 (Local Time) from KRTS Reporting Station
Clear Clear  
Wind Chill: 57°   Ceiling: Unl
Heat Index: 57°   Visibility: 10mi
Dew Point: 25°   Wind: 25mph
Humidity: 29%   Direction: 220°SW
Pressure: 29.92"   Gusts: 35mph
Location:  39.7378°N, 119.889°W
Report Text: KRTS 251315Z AUTO 22022G30KT 10SM CLR 14/M04 A2992 RMK AO2
Loading
Personal Weather Stations






























Interactive Weather Map New forecast layout! Learn more

10-Day Weather Forecast

Advertisements
Track Severe Weather on mobile